Time;durP1;ratioP1;P1;durP2;ratioP2;P2;SDS_P1;SDS_P2;PMS_P1;PMS_P2;Temp;Humidity;BMP_temperature;BMP_pressure;BME280_temperature;BME280_humidity;BME280_pressure;Samples;Min_cycle;Max_cycle;Signal;HPM_P1;HPM_P2
2022/08/25 00:01:13;;;;;;;6.90;3.95;;;;;;;;;;5024928;28;20174;-64
2022/08/25 00:03:39;;;;;;;5.82;4.38;;;;;;;;;;5023859;28;20232;-64
2022/08/25 00:06:05;;;;;;;5.47;4.30;;;;;;;;;;5029979;28;20185;-64
2022/08/25 00:08:33;;;;;;;7.45;4.10;;;;;;;;;;5031933;28;20603;-64
2022/08/25 00:10:59;;;;;;;5.88;4.18;;;;;;;;;;5028880;28;20346;-64
2022/08/25 00:13:25;;;;;;;7.30;3.80;;;;;;;;;;5028122;28;20186;-64
2022/08/25 00:15:50;;;;;;;5.10;4.00;;;;;;;;;;5024630;28;20182;-64
2022/08/25 00:18:15;;;;;;;7.10;4.00;;;;;;;;;;5022225;28;20560;-64
2022/08/25 00:20:41;;;;;;;6.80;4.47;;;;;;;;;;5029556;28;20732;-64
2022/08/25 00:23:06;;;;;;;8.63;3.83;;;;;;;;;;5028548;28;20650;-64
2022/08/25 00:25:31;;;;;;;6.97;4.35;;;;;;;;;;5029193;28;20249;-64
2022/08/25 00:27:57;;;;;;;6.78;4.35;;;;;;;;;;5024111;28;20269;-64
2022/08/25 00:30:23;;;;;;;10.45;4.03;;;;;;;;;;5029709;28;20220;-64
2022/08/25 00:32:48;;;;;;;6.03;4.25;;;;;;;;;;5032770;28;20683;-64
2022/08/25 00:35:14;;;;;;;5.50;4.25;;;;;;;;;;5027334;28;20663;-64
2022/08/25 00:37:40;;;;;;;8.95;4.55;;;;;;;;;;5029255;28;20201;-64
2022/08/25 00:40:06;;;;;;;5.43;4.60;;;;;;;;;;5015264;28;20232;-64
2022/08/25 00:42:32;;;;;;;7.13;4.40;;;;;;;;;;5029201;28;20171;-64
2022/08/25 00:44:57;;;;;;;7.75;4.82;;;;;;;;;;5023949;28;20213;-64
2022/08/25 00:47:23;;;;;;;8.35;5.30;;;;;;;;;;5028970;28;20228;-64
2022/08/25 00:49:53;;;;;;;6.60;4.35;;;;;;;;;;5022788;28;20262;-64
2022/08/25 00:52:24;;;;;;;6.00;3.85;;;;;;;;;;5027445;28;20297;-64
2022/08/25 00:54:55;;;;;;;9.82;4.45;;;;;;;;;;5019631;28;20312;-64
2022/08/25 00:57:27;;;;;;;5.45;4.38;;;;;;;;;;5029354;28;20272;-64
2022/08/25 00:59:53;;;;;;;9.70;4.57;;;;;;;;;;5027334;28;20538;-64
2022/08/25 01:02:19;;;;;;;9.20;4.78;;;;;;;;;;5027425;28;20224;-64
2022/08/25 01:04:45;;;;;;;7.13;4.30;;;;;;;;;;5029086;28;20194;-64
2022/08/25 01:07:11;;;;;;;5.47;4.38;;;;;;;;;;5027571;28;20178;-64
2022/08/25 01:09:37;;;;;;;4.90;4.40;;;;;;;;;;5025047;28;20232;-64
2022/08/25 01:12:03;;;;;;;9.70;4.85;;;;;;;;;;5029306;28;20210;-64
2022/08/25 01:14:30;;;;;;;9.13;5.13;;;;;;;;;;5020262;28;20182;-64
2022/08/25 01:16:57;;;;;;;7.18;4.53;;;;;;;;;;5028800;28;20185;-64
2022/08/25 01:19:23;;;;;;;8.27;4.40;;;;;;;;;;5028430;28;20185;-64
2022/08/25 01:21:51;;;;;;;6.93;4.28;;;;;;;;;;5028963;28;20193;-64
2022/08/25 01:24:31;;;;;;;8.30;3.90;;;;;;;;;;5024767;28;20865;-64
2022/08/25 01:26:57;;;;;;;8.73;4.85;;;;;;;;;;5028777;28;20566;-64
2022/08/25 01:29:25;;;;;;;5.40;4.40;;;;;;;;;;5027382;28;20220;-64
2022/08/25 01:31:56;;;;;;;5.75;4.63;;;;;;;;;;5024107;28;20221;-64
2022/08/25 01:34:23;;;;;;;7.00;4.88;;;;;;;;;;5022560;28;20268;-64
2022/08/25 01:36:49;;;;;;;6.43;4.40;;;;;;;;;;5027862;28;20182;-64
2022/08/25 01:39:15;;;;;;;9.15;4.50;;;;;;;;;;5021297;28;20181;-64
2022/08/25 01:42:10;;;;;;;6.07;4.30;;;;;;;;;;5028143;28;20243;-64
2022/08/25 01:44:38;;;;;;;8.75;4.10;;;;;;;;;;5024104;28;20182;-64
2022/08/25 01:47:05;;;;;;;5.72;4.05;;;;;;;;;;5028831;28;20221;-64
2022/08/25 01:49:31;;;;;;;5.30;4.00;;;;;;;;;;5027227;28;20488;-64
2022/08/25 01:52:24;;;;;;;6.68;4.18;;;;;;;;;;5028328;28;20210;-64
2022/08/25 01:54:49;;;;;;;6.95;4.15;;;;;;;;;;5017122;28;20301;-64
2022/08/25 01:57:15;;;;;;;8.35;4.47;;;;;;;;;;5018537;28;20273;-64
2022/08/25 01:59:41;;;;;;;8.15;3.85;;;;;;;;;;5026096;28;20174;-64
2022/08/25 02:02:06;;;;;;;8.65;4.22;;;;;;;;;;5027835;28;20265;-64
2022/08/25 02:04:32;;;;;;;6.75;4.15;;;;;;;;;;5023511;28;20221;-64
2022/08/25 02:07:03;;;;;;;9.85;4.43;;;;;;;;;;5023661;28;20182;-64
2022/08/25 02:09:29;;;;;;;10.93;3.75;;;;;;;;;;5033969;28;20619;-64
2022/08/25 02:11:55;;;;;;;9.90;3.78;;;;;;;;;;5030917;28;20218;-64
2022/08/25 02:14:21;;;;;;;8.32;4.25;;;;;;;;;;5028092;28;20178;-64
2022/08/25 02:16:48;;;;;;;9.18;4.00;;;;;;;;;;5032399;28;20193;-65
2022/08/25 02:19:15;;;;;;;7.32;3.88;;;;;;;;;;5031623;28;20174;-64
2022/08/25 02:21:41;;;;;;;7.85;3.53;;;;;;;;;;5031980;28;20206;-64
2022/08/25 02:24:07;;;;;;;8.50;4.15;;;;;;;;;;5030341;28;20315;-64
2022/08/25 02:26:32;;;;;;;6.57;4.30;;;;;;;;;;5029717;28;20209;-64
2022/08/25 02:28:58;;;;;;;5.60;3.65;;;;;;;;;;5031128;28;20190;-64
2022/08/25 02:31:24;;;;;;;5.95;3.80;;;;;;;;;;5032529;28;20954;-64
2022/08/25 02:33:51;;;;;;;5.28;3.28;;;;;;;;;;5022408;28;20515;-64
2022/08/25 02:36:17;;;;;;;7.25;3.75;;;;;;;;;;5032382;28;20524;-64
2022/08/25 02:38:43;;;;;;;4.20;3.75;;;;;;;;;;5029356;28;20213;-64
2022/08/25 02:41:12;;;;;;;7.18;3.75;;;;;;;;;;5032015;28;20178;-64
2022/08/25 02:43:40;;;;;;;8.30;4.18;;;;;;;;;;5028912;28;20186;-64
2022/08/25 02:46:05;;;;;;;6.60;3.75;;;;;;;;;;5031755;28;20184;-64
2022/08/25 02:48:31;;;;;;;9.65;3.83;;;;;;;;;;5031384;28;20249;-64
2022/08/25 02:50:59;;;;;;;8.25;3.60;;;;;;;;;;5028769;28;20596;-64
2022/08/25 02:53:25;;;;;;;6.97;3.95;;;;;;;;;;5029872;28;20175;-64
2022/08/25 02:55:51;;;;;;;8.07;4.05;;;;;;;;;;5031124;28;20752;-64
2022/08/25 02:58:16;;;;;;;6.63;3.45;;;;;;;;;;5031075;28;20359;-64
2022/08/25 03:00:41;;;;;;;6.40;3.67;;;;;;;;;;5024397;28;20277;-64
2022/08/25 03:03:07;;;;;;;6.53;3.92;;;;;;;;;;5031255;28;20637;-65
2022/08/25 03:05:32;;;;;;;6.82;3.40;;;;;;;;;;5023451;28;20525;-66
2022/08/25 03:07:58;;;;;;;6.65;3.72;;;;;;;;;;5037957;28;20200;-64
2022/08/25 03:10:24;;;;;;;7.03;3.55;;;;;;;;;;5021348;28;20305;-65
2022/08/25 03:12:49;;;;;;;10.65;4.25;;;;;;;;;;5031226;28;20210;-64
2022/08/25 03:15:15;;;;;;;4.50;4.00;;;;;;;;;;5023635;28;20186;-64
2022/08/25 03:17:42;;;;;;;7.00;3.60;;;;;;;;;;5031068;28;20311;-64
2022/08/25 03:20:08;;;;;;;10.45;4.20;;;;;;;;;;5030163;28;20193;-64
2022/08/25 03:22:33;;;;;;;5.13;3.60;;;;;;;;;;5020191;28;20186;-64
2022/08/25 03:26:52;;;;;;;7.05;3.60;;;;;;;;;;5029559;28;20226;-65
2022/08/25 03:27:44;;;;;;;5.10;3.88;;;;;;;;;;5030627;28;20566;-64
2022/08/25 03:30:10;;;;;;;7.80;3.72;;;;;;;;;;5028903;28;20197;-64
2022/08/25 03:32:37;;;;;;;5.95;3.88;;;;;;;;;;5027145;28;20284;-64
2022/08/25 03:35:03;;;;;;;6.38;4.18;;;;;;;;;;5013528;28;20289;-64
2022/08/25 03:37:28;;;;;;;8.30;4.65;;;;;;;;;;5030247;28;20193;-64
2022/08/25 03:39:53;;;;;;;8.45;3.95;;;;;;;;;;5030763;28;20205;-64
2022/08/25 03:42:19;;;;;;;5.43;4.05;;;;;;;;;;5026722;28;20540;-64
2022/08/25 03:44:44;;;;;;;5.72;3.95;;;;;;;;;;5025554;28;20262;-64
2022/08/25 03:47:09;;;;;;;7.93;4.28;;;;;;;;;;5029542;28;20194;-64
2022/08/25 03:49:35;;;;;;;6.28;3.83;;;;;;;;;;5021407;28;20183;-64
2022/08/25 03:52:01;;;;;;;5.60;3.72;;;;;;;;;;5024199;28;20260;-65
2022/08/25 03:54:26;;;;;;;5.28;4.43;;;;;;;;;;5024619;28;20270;-64
2022/08/25 03:56:51;;;;;;;5.28;3.97;;;;;;;;;;5020725;28;20186;-64
2022/08/25 03:59:17;;;;;;;6.72;4.28;;;;;;;;;;5024248;28;20266;-64
2022/08/25 04:01:44;;;;;;;6.75;3.92;;;;;;;;;;5023857;28;20212;-64
2022/08/25 04:04:12;;;;;;;8.35;4.18;;;;;;;;;;5029649;28;20181;-65
2022/08/25 04:06:38;;;;;;;8.25;3.72;;;;;;;;;;5030603;28;20193;-64
2022/08/25 04:09:04;;;;;;;8.88;3.70;;;;;;;;;;5040345;28;20538;-64
2022/08/25 04:11:29;;;;;;;6.00;4.10;;;;;;;;;;5030440;28;20206;-65
2022/08/25 04:13:57;;;;;;;6.78;4.10;;;;;;;;;;5029001;28;20182;-64
2022/08/25 04:16:30;;;;;;;6.55;4.57;;;;;;;;;;5029796;28;20232;-65
2022/08/25 04:18:57;;;;;;;7.43;4.25;;;;;;;;;;5029661;28;20792;-64
2022/08/25 04:21:24;;;;;;;5.47;4.43;;;;;;;;;;5018446;28;20220;-65
2022/08/25 04:23:51;;;;;;;8.50;4.30;;;;;;;;;;5029368;28;20170;-65
2022/08/25 04:26:21;;;;;;;6.55;4.50;;;;;;;;;;5028921;28;20526;-64
2022/08/25 04:28:48;;;;;;;10.20;5.30;;;;;;;;;;5025395;28;20178;-64
2022/08/25 04:31:15;;;;;;;11.68;5.82;;;;;;;;;;5017297;28;20222;-64
2022/08/25 04:33:41;;;;;;;10.73;6.43;;;;;;;;;;5027397;28;20184;-64
2022/08/25 04:36:10;;;;;;;10.95;6.22;;;;;;;;;;5027910;28;20190;-64
2022/08/25 04:38:37;;;;;;;13.13;6.50;;;;;;;;;;5029523;28;20265;-64
2022/08/25 04:41:06;;;;;;;12.30;6.75;;;;;;;;;;5021650;28;20650;-64
2022/08/25 04:43:32;;;;;;;9.63;6.55;;;;;;;;;;5023175;28;20206;-64
2022/08/25 04:45:58;;;;;;;13.85;7.38;;;;;;;;;;5022422;28;20548;-64
2022/08/25 04:48:24;;;;;;;10.73;6.90;;;;;;;;;;5029936;28;20193;-64
2022/08/25 04:50:50;;;;;;;9.90;6.80;;;;;;;;;;5023192;28;20643;-64
2022/08/25 04:53:16;;;;;;;10.70;6.85;;;;;;;;;;5017480;28;20261;-65
2022/08/25 04:55:44;;;;;;;11.52;6.82;;;;;;;;;;5014551;28;20301;-64
2022/08/25 04:58:10;;;;;;;12.18;6.93;;;;;;;;;;5028430;28;20642;-64
2022/08/25 05:00:36;;;;;;;9.95;6.47;;;;;;;;;;5027631;28;20273;-64
2022/08/25 05:03:03;;;;;;;11.05;6.05;;;;;;;;;;5029129;28;20178;-65
2022/08/25 05:05:29;;;;;;;9.43;6.15;;;;;;;;;;5028523;28;20201;-64
2022/08/25 05:07:54;;;;;;;8.98;5.93;;;;;;;;;;5034507;28;20185;-65
2022/08/25 05:10:19;;;;;;;9.48;6.53;;;;;;;;;;5033078;28;20174;-64
2022/08/25 05:12:45;;;;;;;7.68;5.35;;;;;;;;;;5028737;28;20206;-64
2022/08/25 05:17:55;;;;;;;7.88;5.60;;;;;;;;;;5017504;28;20236;-64
2022/08/25 05:20:20;;;;;;;9.90;5.57;;;;;;;;;;5028631;28;20630;-65
2022/08/25 05:22:46;;;;;;;9.30;5.32;;;;;;;;;;5027828;28;20193;-64
2022/08/25 05:25:13;;;;;;;7.82;5.50;;;;;;;;;;5028435;28;20237;-64
2022/08/25 05:27:39;;;;;;;13.27;5.45;;;;;;;;;;5028388;28;20177;-64
2022/08/25 05:30:05;;;;;;;7.18;6.15;;;;;;;;;;5023288;28;20190;-64
2022/08/25 05:32:31;;;;;;;9.45;5.93;;;;;;;;;;5024618;28;20210;-64
2022/08/25 05:34:56;;;;;;;7.60;5.25;;;;;;;;;;5025027;28;20192;-64
2022/08/25 05:37:22;;;;;;;9.43;4.70;;;;;;;;;;5007351;28;20281;-64
2022/08/25 05:39:47;;;;;;;8.23;5.25;;;;;;;;;;5025267;28;20708;-64
2022/08/25 05:42:12;;;;;;;7.40;5.30;;;;;;;;;;5020857;28;21819;-65
2022/08/25 05:44:38;;;;;;;8.23;4.88;;;;;;;;;;5027172;28;20273;-65
2022/08/25 05:47:04;;;;;;;9.85;5.60;;;;;;;;;;5022552;28;20182;-65
2022/08/25 05:49:29;;;;;;;9.32;5.22;;;;;;;;;;5026677;28;20173;-65
2022/08/25 05:51:54;;;;;;;8.52;4.82;;;;;;;;;;5020716;28;20232;-65
2022/08/25 05:54:20;;;;;;;10.45;5.68;;;;;;;;;;5027144;28;20170;-65
2022/08/25 05:56:45;;;;;;;8.90;5.72;;;;;;;;;;5021597;28;20303;-65
2022/08/25 05:59:11;;;;;;;11.00;5.78;;;;;;;;;;5028120;28;20227;-65
2022/08/25 06:04:21;;;;;;;12.13;5.60;;;;;;;;;;5019332;28;20285;-65
2022/08/25 06:06:47;;;;;;;8.13;5.72;;;;;;;;;;5024412;28;20380;-65
2022/08/25 06:09:13;;;;;;;8.00;5.50;;;;;;;;;;5039086;28;20524;-65
2022/08/25 06:11:39;;;;;;;8.63;5.30;;;;;;;;;;5028134;28;20221;-65
2022/08/25 06:14:05;;;;;;;7.05;5.55;;;;;;;;;;5027489;28;20333;-65
2022/08/25 06:16:30;;;;;;;7.60;5.30;;;;;;;;;;5027611;28;20539;-64
2022/08/25 06:18:56;;;;;;;10.35;5.40;;;;;;;;;;5028120;28;20251;-65
2022/08/25 06:21:21;;;;;;;9.82;5.32;;;;;;;;;;5027979;28;20312;-65
2022/08/25 06:23:48;;;;;;;11.00;5.85;;;;;;;;;;5027315;28;20178;-65
2022/08/25 06:26:14;;;;;;;10.88;5.18;;;;;;;;;;5022280;28;20201;-65
2022/08/25 06:28:39;;;;;;;8.05;4.70;;;;;;;;;;5028092;28;20174;-65
2022/08/25 06:31:05;;;;;;;11.13;4.82;;;;;;;;;;5026407;28;20628;-65
2022/08/25 06:33:30;;;;;;;6.03;4.80;;;;;;;;;;5026703;28;20175;-65
2022/08/25 06:35:56;;;;;;;7.38;4.70;;;;;;;;;;5017156;28;20179;-65
2022/08/25 06:38:22;;;;;;;11.25;4.75;;;;;;;;;;5025736;28;20193;-65
2022/08/25 06:40:48;;;;;;;8.52;4.70;;;;;;;;;;5024748;28;20308;-65
2022/08/25 06:43:14;;;;;;;7.65;4.80;;;;;;;;;;5027826;28;20269;-65
2022/08/25 06:45:39;;;;;;;8.75;4.38;;;;;;;;;;5023738;28;20178;-65
2022/08/25 06:48:05;;;;;;;10.18;4.78;;;;;;;;;;5017200;28;20240;-64
2022/08/25 06:50:30;;;;;;;13.05;4.97;;;;;;;;;;5023181;28;20211;-64
2022/08/25 06:52:55;;;;;;;7.90;4.53;;;;;;;;;;5027532;28;20257;-65
2022/08/25 06:55:21;;;;;;;8.65;5.00;;;;;;;;;;5016486;28;20194;-65
2022/08/25 06:57:47;;;;;;;8.15;4.40;;;;;;;;;;5029455;28;20189;-65
2022/08/25 07:00:12;;;;;;;9.07;4.47;;;;;;;;;;5031000;28;20231;-64
2022/08/25 07:02:37;;;;;;;11.15;4.38;;;;;;;;;;5031362;28;20169;-65
2022/08/25 07:05:04;;;;;;;8.52;4.60;;;;;;;;;;5031570;28;20174;-65
2022/08/25 07:07:30;;;;;;;7.40;4.28;;;;;;;;;;5022507;28;20337;-64
2022/08/25 07:09:55;;;;;;;8.27;3.72;;;;;;;;;;5039278;28;20274;-64
2022/08/25 07:12:22;;;;;;;8.40;4.30;;;;;;;;;;5029693;28;20218;-65
2022/08/25 07:14:48;;;;;;;5.85;3.90;;;;;;;;;;5031046;28;20684;-65
2022/08/25 07:17:13;;;;;;;7.18;4.03;;;;;;;;;;5030084;28;20178;-65
2022/08/25 07:19:39;;;;;;;6.75;3.42;;;;;;;;;;5031068;28;20201;-65
2022/08/25 07:22:04;;;;;;;10.85;4.55;;;;;;;;;;5029551;28;20188;-64
2022/08/25 07:24:29;;;;;;;8.02;3.60;;;;;;;;;;5030148;28;20305;-64
2022/08/25 07:26:55;;;;;;;9.35;3.90;;;;;;;;;;5029335;28;20194;-65
2022/08/25 07:29:23;;;;;;;4.25;3.25;;;;;;;;;;5026111;28;20213;-64
2022/08/25 07:31:48;;;;;;;5.45;3.45;;;;;;;;;;5029980;28;20210;-64
2022/08/25 07:36:58;;;;;;;9.90;3.97;;;;;;;;;;5018111;28;20201;-64
2022/08/25 07:39:24;;;;;;;7.03;4.30;;;;;;;;;;5030253;28;20205;-68
2022/08/25 07:41:50;;;;;;;5.75;3.80;;;;;;;;;;5019007;28;20754;-65
2022/08/25 07:44:16;;;;;;;9.18;3.78;;;;;;;;;;5024037;28;20261;-64
2022/08/25 07:46:41;;;;;;;6.78;3.75;;;;;;;;;;5019350;28;20521;-64
2022/08/25 07:49:07;;;;;;;6.22;3.80;;;;;;;;;;5027525;28;20320;-64
2022/08/25 07:51:32;;;;;;;7.15;4.03;;;;;;;;;;5021659;28;20215;-64
2022/08/25 07:53:58;;;;;;;7.03;3.67;;;;;;;;;;5025058;28;20181;-64
2022/08/25 07:56:23;;;;;;;7.15;4.20;;;;;;;;;;5026521;28;20185;-64
2022/08/25 07:58:49;;;;;;;6.85;3.70;;;;;;;;;;5030090;28;20206;-65
2022/08/25 08:01:20;;;;;;;7.25;3.65;;;;;;;;;;5023776;28;20175;-64
2022/08/25 08:03:46;;;;;;;9.40;3.90;;;;;;;;;;5027037;28;20181;-64
2022/08/25 08:06:14;;;;;;;8.80;3.85;;;;;;;;;;5029963;28;20184;-64
2022/08/25 08:08:44;;;;;;;7.32;3.67;;;;;;;;;;5039833;28;20173;-64
2022/08/25 08:11:22;;;;;;;7.95;3.38;;;;;;;;;;5025957;28;20211;-64
2022/08/25 08:13:48;;;;;;;8.73;3.60;;;;;;;;;;5025123;28;20268;-64
2022/08/25 08:16:16;;;;;;;7.50;3.53;;;;;;;;;;5029786;28;20186;-65
2022/08/25 08:18:43;;;;;;;6.82;3.47;;;;;;;;;;5029339;28;20182;-65
2022/08/25 08:21:17;;;;;;;6.90;3.42;;;;;;;;;;5029588;28;20178;-65
2022/08/25 08:23:42;;;;;;;5.40;3.85;;;;;;;;;;5030175;28;20186;-65
2022/08/25 08:26:08;;;;;;;6.15;3.72;;;;;;;;;;5025105;28;20237;-65
2022/08/25 08:28:33;;;;;;;7.32;3.60;;;;;;;;;;5029183;28;20209;-64
2022/08/25 08:30:58;;;;;;;6.88;3.50;;;;;;;;;;5026684;28;20189;-65
2022/08/25 08:33:24;;;;;;;7.13;3.83;;;;;;;;;;5028947;28;20190;-65
2022/08/25 08:36:03;;;;;;;6.13;3.60;;;;;;;;;;5029227;28;20182;-65
2022/08/25 08:38:28;;;;;;;7.57;3.75;;;;;;;;;;5020114;28;20179;-65
2022/08/25 08:44:36;;;;;;;7.60;3.50;;;;;;;;;;5027768;28;20232;-65
2022/08/25 08:47:04;;;;;;;5.95;3.90;;;;;;;;;;5018230;28;20179;-63
2022/08/25 08:49:49;;;;;;;5.30;3.92;;;;;;;;;;5030153;28;20174;-63
2022/08/25 08:52:18;;;;;;;6.60;3.50;;;;;;;;;;5016973;28;20201;-63
2022/08/25 08:54:47;;;;;;;6.95;4.05;;;;;;;;;;5030014;28;20220;-64
2022/08/25 08:57:21;;;;;;;5.57;3.47;;;;;;;;;;5017566;28;20186;-64
2022/08/25 08:59:52;;;;;;;6.93;3.90;;;;;;;;;;5023439;28;20183;-63
2022/08/25 09:02:27;;;;;;;6.03;3.17;;;;;;;;;;5028029;28;20185;-64
2022/08/25 09:05:00;;;;;;;7.75;4.00;;;;;;;;;;5029425;28;20620;-64
2022/08/25 09:07:32;;;;;;;9.48;3.30;;;;;;;;;;5024349;28;20186;-64
2022/08/25 09:09:57;;;;;;;9.73;4.00;;;;;;;;;;5037131;28;20200;-64
2022/08/25 09:12:44;;;;;;;7.38;3.40;;;;;;;;;;5028385;28;20760;-64
2022/08/25 09:16:53;;;;;;;5.20;3.30;;;;;;;;;;5028241;28;20182;-66
2022/08/25 09:18:31;;;;;;;8.15;3.70;;;;;;;;;;5009014;28;20213;-65
2022/08/25 09:21:15;;;;;;;5.10;3.45;;;;;;;;;;5027809;28;20182;-66
2022/08/25 09:23:56;;;;;;;5.60;3.30;;;;;;;;;;5018968;28;20532;-65
2022/08/25 09:26:35;;;;;;;5.13;3.53;;;;;;;;;;5021778;28;20244;-65
2022/08/25 09:29:04;;;;;;;7.28;3.60;;;;;;;;;;5028490;28;20186;-66
2022/08/25 09:31:38;;;;;;;5.78;3.60;;;;;;;;;;5026138;28;20229;-69
2022/08/25 09:34:15;;;;;;;6.40;3.97;;;;;;;;;;5028676;28;20261;-65
2022/08/25 09:36:41;;;;;;;4.55;3.67;;;;;;;;;;5017161;28;20190;-65
2022/08/25 09:39:07;;;;;;;6.20;3.00;;;;;;;;;;5027894;28;20196;-66
2022/08/25 09:41:52;;;;;;;5.38;3.33;;;;;;;;;;5025610;28;20647;-64
2022/08/25 09:44:42;;;;;;;9.25;3.60;;;;;;;;;;5028553;28;20529;-65
2022/08/25 09:47:16;;;;;;;7.90;3.42;;;;;;;;;;5021179;28;20186;-65
2022/08/25 09:49:45;;;;;;;6.07;3.50;;;;;;;;;;5024438;28;20173;-64
2022/08/25 09:52:16;;;;;;;6.97;3.60;;;;;;;;;;5021009;28;20561;-65
2022/08/25 09:54:42;;;;;;;7.47;4.18;;;;;;;;;;5029169;28;20185;-65
2022/08/25 09:57:07;;;;;;;5.55;3.03;;;;;;;;;;5028075;28;20273;-64
2022/08/25 09:59:35;;;;;;;4.30;3.28;;;;;;;;;;5024275;28;20216;-64
2022/08/25 10:02:04;;;;;;;7.55;3.70;;;;;;;;;;5024914;28;21041;-65
2022/08/25 10:04:35;;;;;;;3.47;3.15;;;;;;;;;;5028173;28;20272;-65
2022/08/25 10:07:05;;;;;;;4.72;3.15;;;;;;;;;;5024176;28;20199;-66
2022/08/25 10:09:40;;;;;;;5.32;3.78;;;;;;;;;;5039477;28;20545;-67
2022/08/25 10:12:27;;;;;;;4.57;3.22;;;;;;;;;;5027573;28;20622;-67
2022/08/25 10:14:53;;;;;;;6.38;3.20;;;;;;;;;;5019813;28;20657;-66
2022/08/25 10:17:26;;;;;;;6.65;3.33;;;;;;;;;;5027672;28;20182;-68
2022/08/25 10:20:11;;;;;;;4.22;3.22;;;;;;;;;;5019497;28;20179;-66
2022/08/25 10:22:39;;;;;;;4.65;3.60;;;;;;;;;;5020950;28;20660;-66
2022/08/25 10:25:07;;;;;;;6.22;3.58;;;;;;;;;;5018909;28;20566;-66
2022/08/25 10:28:07;;;;;;;5.47;3.08;;;;;;;;;;5027739;28;20190;-64
2022/08/25 10:30:51;;;;;;;3.67;2.92;;;;;;;;;;5022075;28;20182;-64
2022/08/25 10:33:48;;;;;;;3.97;3.22;;;;;;;;;;5025625;28;20327;-64
2022/08/25 10:36:20;;;;;;;4.88;2.92;;;;;;;;;;5021684;28;20494;-64
2022/08/25 10:39:08;;;;;;;5.43;3.38;;;;;;;;;;5031289;28;20220;-64
2022/08/25 10:41:36;;;;;;;7.95;3.30;;;;;;;;;;5031861;28;20178;-64
2022/08/25 10:45:41;;;;;;;6.93;3.25;;;;;;;;;;5029401;28;20505;-66
2022/08/25 10:47:09;;;;;;;7.85;3.00;;;;;;;;;;5031494;28;20194;-66
2022/08/25 10:49:46;;;;;;;5.70;3.17;;;;;;;;;;5019655;28;20228;-65
2022/08/25 10:52:19;;;;;;;9.77;4.00;;;;;;;;;;5031079;28;20213;-65
2022/08/25 10:55:18;;;;;;;5.75;3.50;;;;;;;;;;5031807;28;20182;-65
2022/08/25 10:57:56;;;;;;;3.88;3.15;;;;;;;;;;5030564;28;20198;-66
2022/08/25 11:00:25;;;;;;;6.00;3.10;;;;;;;;;;5031323;28;20201;-65
2022/08/25 11:03:21;;;;;;;4.60;3.55;;;;;;;;;;5031775;28;20311;-66
2022/08/25 11:06:04;;;;;;;4.70;3.28;;;;;;;;;;5030393;28;20701;-65
2022/08/25 11:08:35;;;;;;;7.13;3.33;;;;;;;;;;5041916;28;20185;-66
2022/08/25 11:11:24;;;;;;;5.50;3.78;;;;;;;;;;5030892;28;20170;-66
2022/08/25 11:14:08;;;;;;;7.82;3.05;;;;;;;;;;5030143;28;20186;-66
2022/08/25 11:16:57;;;;;;;3.42;3.10;;;;;;;;;;5028832;28;20762;-65
2022/08/25 11:19:34;;;;;;;10.07;3.22;;;;;;;;;;5030309;28;20190;-65
2022/08/25 11:22:09;;;;;;;6.28;3.20;;;;;;;;;;5030847;28;20174;-65
2022/08/25 11:24:50;;;;;;;4.65;3.70;;;;;;;;;;5017261;28;20578;-66
2022/08/25 11:27:31;;;;;;;4.10;3.70;;;;;;;;;;5027390;28;20313;-66
2022/08/25 11:30:11;;;;;;;5.93;3.42;;;;;;;;;;5031361;28;20189;-66
2022/08/25 11:32:38;;;;;;;5.65;3.17;;;;;;;;;;5027616;28;20629;-65
2022/08/25 11:35:10;;;;;;;3.20;2.90;;;;;;;;;;5017033;28;20178;-66
2022/08/25 11:38:00;;;;;;;7.43;3.30;;;;;;;;;;5012269;28;20262;-64
2022/08/25 11:41:00;;;;;;;4.25;2.95;;;;;;;;;;5004436;28;20205;-65
2022/08/25 11:43:44;;;;;;;5.05;3.03;;;;;;;;;;5022920;28;20198;-65
2022/08/25 11:46:38;;;;;;;5.88;2.85;;;;;;;;;;5029287;28;20181;-66
2022/08/25 11:49:21;;;;;;;3.65;2.80;;;;;;;;;;5026932;28;20186;-64
2022/08/25 11:51:49;;;;;;;3.20;2.90;;;;;;;;;;5021262;28;20216;-67
2022/08/25 11:54:41;;;;;;;5.32;2.88;;;;;;;;;;5027662;28;20687;-66
2022/08/25 11:57:17;;;;;;;4.60;2.95;;;;;;;;;;5030198;28;20553;-66
2022/08/25 11:59:48;;;;;;;3.78;3.00;;;;;;;;;;5026632;28;20181;-64
2022/08/25 12:02:58;;;;;;;6.63;3.13;;;;;;;;;;5027322;28;20178;-65
2022/08/25 12:05:46;;;;;;;3.15;2.70;;;;;;;;;;5021587;28;20202;-64
2022/08/25 12:10:54;;;;;;;6.65;2.58;;;;;;;;;;5030914;28;20238;-64
2022/08/25 12:13:36;;;;;;;4.70;2.72;;;;;;;;;;5020768;28;20470;-64
2022/08/25 12:16:01;;;;;;;5.35;2.88;;;;;;;;;;5028930;28;20281;-65
2022/08/25 12:18:30;;;;;;;2.97;2.60;;;;;;;;;;5020186;28;20257;-65
2022/08/25 12:21:00;;;;;;;3.00;2.70;;;;;;;;;;5027578;28;20540;-67
2022/08/25 12:23:43;;;;;;;5.82;3.20;;;;;;;;;;5017842;28;20491;-66
2022/08/25 12:26:47;;;;;;;4.78;2.65;;;;;;;;;;5023493;28;20267;-65
2022/08/25 12:29:33;;;;;;;4.28;2.67;;;;;;;;;;5022550;28;20212;-64
2022/08/25 12:32:06;;;;;;;2.58;2.38;;;;;;;;;;5029702;28;20225;-65
2022/08/25 12:34:49;;;;;;;3.38;2.80;;;;;;;;;;5020229;28;20186;-66
2022/08/25 12:37:21;;;;;;;4.57;3.08;;;;;;;;;;5029122;28;20240;-66
2022/08/25 12:39:49;;;;;;;4.72;2.92;;;;;;;;;;5021466;28;20261;-66
2022/08/25 12:42:28;;;;;;;6.70;2.80;;;;;;;;;;5028886;28;20557;-70
2022/08/25 12:45:23;;;;;;;4.70;2.85;;;;;;;;;;5024307;28;20223;-67
2022/08/25 12:47:49;;;;;;;4.47;2.78;;;;;;;;;;5025960;28;20217;-65
2022/08/25 12:50:46;;;;;;;6.93;3.17;;;;;;;;;;5029012;28;20189;-63
2022/08/25 12:53:39;;;;;;;2.50;2.30;;;;;;;;;;5012974;28;20213;-65
2022/08/25 12:56:06;;;;;;;6.38;2.67;;;;;;;;;;5024633;28;20202;-65
2022/08/25 12:58:54;;;;;;;3.63;2.63;;;;;;;;;;5025476;28;20194;-65
2022/08/25 13:01:40;;;;;;;3.00;2.38;;;;;;;;;;5029297;28;20208;-65
2022/08/25 13:04:43;;;;;;;4.22;2.72;;;;;;;;;;5014276;28;20677;-65
2022/08/25 13:07:22;;;;;;;3.67;2.47;;;;;;;;;;5013403;28;20193;-65
2022/08/25 13:10:42;;;;;;;5.75;2.42;;;;;;;;;;5028240;28;20177;-66
2022/08/25 13:13:45;;;;;;;6.35;2.92;;;;;;;;;;5016949;28;20232;-66
2022/08/25 13:16:20;;;;;;;3.85;2.78;;;;;;;;;;5017210;28;20196;-66
2022/08/25 13:18:46;;;;;;;2.92;2.60;;;;;;;;;;5019947;28;20224;-64
2022/08/25 13:21:17;;;;;;;6.45;2.22;;;;;;;;;;5020247;28;20628;-64
2022/08/25 13:23:46;;;;;;;4.20;2.72;;;;;;;;;;5020314;28;20206;-65
2022/08/25 13:26:20;;;;;;;5.05;3.03;;;;;;;;;;5027789;28;20189;-65
2022/08/25 13:28:53;;;;;;;3.25;2.63;;;;;;;;;;5019979;28;20755;-66
2022/08/25 13:31:21;;;;;;;6.13;3.00;;;;;;;;;;5015385;28;20214;-66
2022/08/25 13:33:56;;;;;;;5.57;2.88;;;;;;;;;;5021318;28;20257;-66
2022/08/25 13:39:17;;;;;;;3.33;2.50;;;;;;;;;;5022948;28;20688;-65
2022/08/25 13:41:51;;;;;;;8.07;2.78;;;;;;;;;;5029255;28;20216;-65
2022/08/25 13:44:21;;;;;;;3.15;2.38;;;;;;;;;;5026202;28;20177;-65
2022/08/25 13:46:47;;;;;;;3.97;2.30;;;;;;;;;;5028690;28;20193;-65
2022/08/25 13:49:24;;;;;;;2.50;2.30;;;;;;;;;;5020127;28;20223;-65
2022/08/25 13:51:53;;;;;;;3.00;2.55;;;;;;;;;;5029164;28;20259;-64
2022/08/25 13:54:37;;;;;;;3.58;2.40;;;;;;;;;;5020320;28;20208;-64
2022/08/25 13:57:21;;;;;;;2.92;2.35;;;;;;;;;;5029354;28;20185;-65
2022/08/25 13:59:50;;;;;;;2.90;1.90;;;;;;;;;;5026420;28;20181;-65
2022/08/25 14:02:46;;;;;;;2.33;1.83;;;;;;;;;;5028395;28;20617;-65
2022/08/25 14:05:16;;;;;;;2.38;2.17;;;;;;;;;;5028462;28;20174;-64
2022/08/25 14:07:55;;;;;;;4.22;2.28;;;;;;;;;;5033276;28;20190;-65
2022/08/25 14:10:37;;;;;;;4.65;2.15;;;;;;;;;;5027424;28;20185;-65
2022/08/25 14:13:25;;;;;;;2.78;2.33;;;;;;;;;;5032453;28;20205;-65
2022/08/25 14:15:51;;;;;;;6.35;2.13;;;;;;;;;;5029603;28;20185;-65
2022/08/25 14:18:31;;;;;;;4.15;2.30;;;;;;;;;;5020348;28;20541;-65
2022/08/25 14:20:57;;;;;;;4.13;2.60;;;;;;;;;;5031083;28;20264;-65
2022/08/25 14:23:26;;;;;;;4.15;2.53;;;;;;;;;;5032265;28;20245;-65
2022/08/25 14:25:52;;;;;;;2.53;2.33;;;;;;;;;;5031610;28;20240;-65
2022/08/25 14:28:23;;;;;;;3.10;2.45;;;;;;;;;;5030401;28;20470;-65
2022/08/25 14:31:12;;;;;;;4.05;2.47;;;;;;;;;;5024757;28;20184;-65
2022/08/25 14:33:42;;;;;;;3.70;2.33;;;;;;;;;;5029222;28;20200;-65
2022/08/25 14:36:07;;;;;;;4.20;2.53;;;;;;;;;;5032516;28;20221;-64
2022/08/25 14:38:35;;;;;;;4.97;2.75;;;;;;;;;;5028824;28;20170;-63
2022/08/25 14:41:00;;;;;;;3.20;2.33;;;;;;;;;;5032583;28;20650;-65
2022/08/25 14:43:26;;;;;;;3.58;2.35;;;;;;;;;;5020561;28;20184;-65
2022/08/25 14:45:52;;;;;;;3.45;2.40;;;;;;;;;;5030167;28;20186;-65
2022/08/25 14:48:28;;;;;;;2.97;2.65;;;;;;;;;;5031053;28;20189;-65
2022/08/25 14:50:55;;;;;;;3.97;2.20;;;;;;;;;;5029772;28;20219;-67
2022/08/25 14:53:20;;;;;;;4.20;2.50;;;;;;;;;;5030199;28;20236;-67
2022/08/25 14:55:46;;;;;;;5.72;2.10;;;;;;;;;;5027934;28;20225;-64
2022/08/25 14:58:12;;;;;;;3.30;2.50;;;;;;;;;;5031696;28;20181;-65
2022/08/25 15:00:41;;;;;;;3.67;2.25;;;;;;;;;;5031324;28;20181;-65
2022/08/25 15:03:07;;;;;;;2.40;2.20;;;;;;;;;;5027543;28;20672;-66
2022/08/25 15:05:32;;;;;;;3.15;2.45;;;;;;;;;;5029033;28;20181;-65
2022/08/25 15:10:41;;;;;;;4.95;2.20;;;;;;;;;;5029808;28;20204;-66
2022/08/25 15:13:08;;;;;;;3.30;2.50;;;;;;;;;;5030855;28;20213;-65
2022/08/25 15:15:37;;;;;;;2.63;2.20;;;;;;;;;;5028808;28;20192;-66
2022/08/25 15:18:04;;;;;;;4.68;2.70;;;;;;;;;;5030506;28;20185;-63
2022/08/25 15:20:29;;;;;;;5.88;2.60;;;;;;;;;;5030935;28;20552;-63
2022/08/25 15:22:55;;;;;;;3.67;2.70;;;;;;;;;;5031199;28;20291;-63
2022/08/25 15:25:21;;;;;;;3.85;2.95;;;;;;;;;;5027366;28;20233;-63